createdAt,value
2022-12-11T00:01:27.433Z,0.67
2022-12-11T00:03:53.969Z,0.71
2022-12-11T00:06:22.544Z,0.63
2022-12-11T00:08:53.474Z,0.57
2022-12-11T00:11:21.407Z,0.58
2022-12-11T00:13:47.994Z,0.54
2022-12-11T00:16:14.732Z,0.62
2022-12-11T00:18:41.432Z,0.59
2022-12-11T00:21:11.044Z,0.54
2022-12-11T00:23:38.094Z,0.58
2022-12-11T00:26:14.133Z,0.69
2022-12-11T00:28:40.948Z,0.68
2022-12-11T00:31:18.230Z,0.73
2022-12-11T00:33:45.812Z,0.73
2022-12-11T00:36:14.524Z,0.73
2022-12-11T00:38:41.261Z,0.68
2022-12-11T00:41:07.615Z,0.71
2022-12-11T00:43:34.189Z,0.77
2022-12-11T00:46:00.619Z,0.79
2022-12-11T00:48:27.060Z,0.78
2022-12-11T00:50:53.621Z,0.79
2022-12-11T00:53:20.508Z,0.78
2022-12-11T00:55:46.915Z,0.83
2022-12-11T00:58:13.523Z,0.82
2022-12-11T01:00:41.071Z,0.87
2022-12-11T01:03:07.826Z,0.81
2022-12-11T01:05:34.561Z,0.83
2022-12-11T01:08:00.956Z,0.85
2022-12-11T01:10:27.456Z,0.87
2022-12-11T01:12:55.492Z,0.91
2022-12-11T01:15:23.576Z,0.91
2022-12-11T01:17:51.022Z,0.94
2022-12-11T01:20:18.251Z,0.93
2022-12-11T01:22:44.778Z,0.88
2022-12-11T01:25:11.734Z,0.81
2022-12-11T01:27:39.131Z,0.89
2022-12-11T01:30:07.992Z,0.96
2022-12-11T01:32:35.094Z,0.95
2022-12-11T01:35:07.253Z,0.93
2022-12-11T01:37:34.798Z,0.90
2022-12-11T01:40:01.699Z,0.92
2022-12-11T01:42:29.466Z,0.84
2022-12-11T01:45:53.215Z,0.87
2022-12-11T01:48:42.096Z,0.78
2022-12-11T01:51:08.908Z,0.78
2022-12-11T01:53:40.253Z,0.79
2022-12-11T01:56:08.611Z,0.79
2022-12-11T01:58:40.081Z,0.85
2022-12-11T02:01:06.483Z,0.81
2022-12-11T02:03:33.119Z,0.86
2022-12-11T02:06:01.226Z,0.91
2022-12-11T02:08:27.859Z,0.86
2022-12-11T02:11:10.778Z,0.95
2022-12-11T02:14:04.487Z,0.86
2022-12-11T02:16:50.628Z,0.94
2022-12-11T02:19:42.466Z,0.92
2022-12-11T02:22:14.161Z,0.92
2022-12-11T02:25:03.573Z,0.95
2022-12-11T02:27:44.638Z,0.92
2022-12-11T02:30:14.028Z,0.89
2022-12-11T02:32:56.214Z,0.96
2022-12-11T02:35:37.478Z,0.99
2022-12-11T02:38:17.882Z,0.98
2022-12-11T02:40:47.348Z,1.01
2022-12-11T02:43:16.990Z,0.98
2022-12-11T02:45:45.178Z,0.93
2022-12-11T02:48:12.965Z,0.94
2022-12-11T02:50:51.295Z,0.88
2022-12-11T02:53:22.037Z,0.87
2022-12-11T02:55:54.266Z,0.88
2022-12-11T02:58:45.835Z,0.81
2022-12-11T03:01:12.371Z,0.70
2022-12-11T03:03:38.854Z,0.78
2022-12-11T03:06:05.413Z,0.79
2022-12-11T03:08:32.330Z,0.84
2022-12-11T03:10:58.747Z,0.83
2022-12-11T03:13:25.319Z,0.85
2022-12-11T03:16:12.290Z,0.85
2022-12-11T03:19:12.585Z,0.79
2022-12-11T03:21:56.725Z,0.82
2022-12-11T03:24:33.618Z,0.82
2022-12-11T03:27:10.978Z,0.84
2022-12-11T03:29:42.917Z,0.83
2022-12-11T03:32:13.175Z,0.85
2022-12-11T03:34:44.560Z,0.93
2022-12-11T03:37:13.880Z,0.91
2022-12-11T03:39:46.198Z,0.99
2022-12-11T03:42:14.951Z,1.04
2022-12-11T03:44:42.637Z,1.09
2022-12-11T03:47:10.490Z,1.09
2022-12-11T03:49:42.054Z,1.14
2022-12-11T03:52:11.235Z,1.15
2022-12-11T03:54:39.472Z,1.13
2022-12-11T03:57:08.203Z,1.15
2022-12-11T03:59:38.108Z,1.17
2022-12-11T04:02:10.911Z,1.12
2022-12-11T04:04:42.033Z,1.18
2022-12-11T04:07:09.311Z,1.23
2022-12-11T04:09:36.038Z,1.18
2022-12-11T04:12:02.415Z,1.23
2022-12-11T04:14:47.589Z,1.21
2022-12-11T04:17:33.900Z,1.18
2022-12-11T04:20:18.789Z,1.21
2022-12-11T04:23:03.733Z,1.18
2022-12-11T04:25:30.105Z,1.17
2022-12-11T04:27:56.477Z,1.14
2022-12-11T04:30:30.745Z,1.18
2022-12-11T04:33:00.262Z,1.16
2022-12-11T04:35:26.591Z,1.14
2022-12-11T04:37:52.946Z,1.15
2022-12-11T04:40:20.341Z,1.26
2022-12-11T04:42:46.998Z,1.25
2022-12-11T04:45:13.794Z,1.18
2022-12-11T04:47:40.916Z,1.26
2022-12-11T04:50:09.407Z,1.32
2022-12-11T04:52:36.437Z,1.33
2022-12-11T04:55:05.334Z,1.43
2022-12-11T04:57:31.710Z,1.47
2022-12-11T04:59:58.131Z,1.55
2022-12-11T05:02:26.601Z,1.58
2022-12-11T05:04:53.073Z,1.63
2022-12-11T05:07:19.493Z,1.58
2022-12-11T05:09:45.907Z,1.65
2022-12-11T05:12:12.470Z,1.73
2022-12-11T05:14:38.900Z,1.69
2022-12-11T05:17:05.214Z,1.66
2022-12-11T05:19:34.024Z,1.57
2022-12-11T05:22:01.412Z,1.53
2022-12-11T05:24:27.834Z,1.51
2022-12-11T05:26:54.350Z,1.47
2022-12-11T05:29:20.760Z,1.45
2022-12-11T05:31:47.156Z,1.42
2022-12-11T05:34:15.107Z,1.39
2022-12-11T05:36:41.550Z,1.44
2022-12-11T05:39:07.910Z,1.49
2022-12-11T05:41:34.304Z,1.53
2022-12-11T05:44:00.712Z,1.52
2022-12-11T05:46:29.469Z,1.55
2022-12-11T05:48:57.204Z,1.56
2022-12-11T05:51:24.323Z,1.45
2022-12-11T05:53:52.887Z,1.48
2022-12-11T05:56:21.925Z,1.45
2022-12-11T05:58:49.017Z,1.43
2022-12-11T06:01:21.494Z,1.47
2022-12-11T06:03:48.575Z,1.52
2022-12-11T06:06:15.502Z,1.58
2022-12-11T06:08:42.097Z,1.53
2022-12-11T06:11:09.051Z,1.39
2022-12-11T06:13:35.895Z,1.34
2022-12-11T06:16:03.983Z,1.31
2022-12-11T06:18:30.766Z,1.28
2022-12-11T06:20:57.197Z,1.34
2022-12-11T06:23:23.664Z,1.44
2022-12-11T06:25:50.028Z,1.45
2022-12-11T06:28:16.553Z,1.44
2022-12-11T06:30:43.006Z,1.47
2022-12-11T06:33:09.428Z,1.36
2022-12-11T06:35:41.639Z,1.32
2022-12-11T06:38:10.758Z,1.31
2022-12-11T06:40:37.423Z,1.32
2022-12-11T06:43:03.779Z,1.34
2022-12-11T06:45:30.830Z,1.36
2022-12-11T06:47:58.324Z,1.35
2022-12-11T06:50:24.699Z,1.34
2022-12-11T06:52:51.104Z,1.34
2022-12-11T06:55:17.857Z,1.32
2022-12-11T06:57:44.858Z,1.29
2022-12-11T07:00:11.876Z,1.34
2022-12-11T07:02:39.017Z,1.39
2022-12-11T07:05:05.931Z,1.33
2022-12-11T07:07:32.382Z,1.25
2022-12-11T07:10:04.233Z,1.34
2022-12-11T07:12:34.183Z,1.29
2022-12-11T07:15:01.132Z,1.27
2022-12-11T07:17:29.567Z,1.23
2022-12-11T07:19:56.066Z,1.12
2022-12-11T07:22:22.512Z,1.15
2022-12-11T07:24:48.861Z,1.05
2022-12-11T07:27:15.165Z,1.08
2022-12-11T07:29:41.528Z,1.07
2022-12-11T07:32:07.935Z,1.06
2022-12-11T07:34:34.434Z,1.04
2022-12-11T07:37:00.774Z,1.08
2022-12-11T07:39:27.228Z,1.10
2022-12-11T07:41:53.589Z,1.13
2022-12-11T07:44:19.938Z,1.13
2022-12-11T07:46:46.454Z,1.23
2022-12-11T07:49:12.855Z,1.30
2022-12-11T07:51:39.357Z,1.33
2022-12-11T07:54:10.705Z,1.37
2022-12-11T07:56:37.370Z,1.30
2022-12-11T07:59:05.480Z,1.35
2022-12-11T08:01:35.764Z,1.23
2022-12-11T08:04:06.858Z,1.21
2022-12-11T08:06:38.846Z,1.29
2022-12-11T08:09:08.155Z,1.28
2022-12-11T08:11:35.016Z,1.21
2022-12-11T08:14:02.346Z,1.27
2022-12-11T08:16:29.393Z,1.26
2022-12-11T08:18:55.958Z,1.24
2022-12-11T08:21:24.579Z,1.33
2022-12-11T08:23:55.890Z,1.33
2022-12-11T08:26:29.230Z,1.27
2022-12-11T08:28:56.397Z,1.29
2022-12-11T08:31:23.587Z,1.32
2022-12-11T08:33:51.459Z,1.44
2022-12-11T08:36:20.777Z,1.35
2022-12-11T08:38:48.455Z,1.28
2022-12-11T08:41:26.639Z,1.31
2022-12-11T08:43:55.005Z,1.17
2022-12-11T08:46:23.909Z,1.20
2022-12-11T08:48:50.607Z,1.13
2022-12-11T08:51:20.869Z,1.14
2022-12-11T08:53:47.232Z,1.08
2022-12-11T08:56:19.159Z,1.18
2022-12-11T08:58:46.616Z,1.15
2022-12-11T09:01:26.302Z,1.15
2022-12-11T09:03:54.208Z,1.20
2022-12-11T09:06:23.429Z,1.25
2022-12-11T09:08:52.899Z,1.37
2022-12-11T09:11:22.900Z,1.48
2022-12-11T09:13:49.916Z,1.49
2022-12-11T09:16:18.662Z,1.54
2022-12-11T09:18:46.139Z,1.64
2022-12-11T09:21:14.123Z,1.64
2022-12-11T09:23:40.879Z,1.63
2022-12-11T09:26:10.988Z,1.75
2022-12-11T09:28:42.702Z,1.57
2022-12-11T09:31:23.350Z,1.64
2022-12-11T09:33:52.042Z,1.61
2022-12-11T09:36:19.042Z,1.59
2022-12-11T09:38:45.739Z,1.68
2022-12-11T09:41:20.855Z,1.66
2022-12-11T09:44:02.749Z,1.69
2022-12-11T09:46:34.197Z,1.71
2022-12-11T09:49:02.540Z,1.72
2022-12-11T09:51:42.471Z,1.75
2022-12-11T09:54:13.247Z,1.73
2022-12-11T09:56:44.761Z,1.75
2022-12-11T09:59:28.176Z,1.78
2022-12-11T10:02:14.424Z,1.81
2022-12-11T10:04:59.111Z,1.77
2022-12-11T10:07:40.825Z,1.76
2022-12-11T10:10:35.765Z,1.72
2022-12-11T10:13:16.578Z,1.83
2022-12-11T10:16:00.072Z,1.84
2022-12-11T10:18:28.985Z,1.83
2022-12-11T10:20:56.589Z,1.90
2022-12-11T10:23:35.596Z,1.89
2022-12-11T10:26:14.603Z,1.91
2022-12-11T10:28:41.138Z,1.88
2022-12-11T10:31:13.881Z,1.87
2022-12-11T10:33:58.490Z,1.90
2022-12-11T10:36:34.198Z,2.04
2022-12-11T10:39:01.501Z,2.09
2022-12-11T10:41:49.659Z,2.20
2022-12-11T10:44:21.325Z,2.15
2022-12-11T10:47:09.045Z,2.19
2022-12-11T10:49:37.634Z,2.16
2022-12-11T10:52:22.048Z,2.11
2022-12-11T10:54:56.312Z,2.17
2022-12-11T10:57:29.290Z,2.20
2022-12-11T10:59:56.055Z,2.15
2022-12-11T11:02:31.815Z,2.09
2022-12-11T11:05:00.655Z,2.13
2022-12-11T11:07:28.570Z,2.23
2022-12-11T11:10:17.347Z,2.10
2022-12-11T11:12:47.458Z,2.05
2022-12-11T11:15:30.619Z,2.19
2022-12-11T11:18:03.853Z,2.05
2022-12-11T11:20:31.485Z,2.03
2022-12-11T11:23:04.213Z,2.05
2022-12-11T11:25:33.704Z,2.03
2022-12-11T11:28:02.442Z,2.01
2022-12-11T11:30:30.741Z,2.04
2022-12-11T11:33:02.254Z,2.01
2022-12-11T11:35:30.837Z,2.06
2022-12-11T11:38:09.544Z,2.13
2022-12-11T11:40:58.127Z,2.07
2022-12-11T11:43:43.513Z,1.96
2022-12-11T11:46:36.588Z,2.01
2022-12-11T11:49:27.008Z,1.96
2022-12-11T11:52:25.775Z,1.93
2022-12-11T11:55:17.289Z,1.92
2022-12-11T11:57:56.541Z,1.84
2022-12-11T12:00:28.811Z,1.91
2022-12-11T12:03:03.365Z,1.89
2022-12-11T12:05:43.414Z,1.75
2022-12-11T12:08:15.994Z,1.84
2022-12-11T12:10:50.331Z,1.85
2022-12-11T12:13:49.040Z,1.86
2022-12-11T12:16:52.105Z,1.88
2022-12-11T12:19:51.681Z,1.91
2022-12-11T12:22:43.836Z,1.90
2022-12-11T12:25:25.657Z,1.86
2022-12-11T12:28:11.865Z,1.79
2022-12-11T12:31:10.522Z,1.85
2022-12-11T12:33:55.804Z,1.76
2022-12-11T12:37:02.642Z,1.80
2022-12-11T12:40:02.728Z,1.78
2022-12-11T12:42:47.770Z,1.89
2022-12-11T12:45:21.086Z,1.88
2022-12-11T12:47:53.246Z,1.98
2022-12-11T12:50:23.071Z,2.00
2022-12-11T12:52:52.118Z,2.03
2022-12-11T12:55:24.485Z,2.00
2022-12-11T12:58:00.496Z,1.86
2022-12-11T13:00:41.121Z,1.88
2022-12-11T13:03:29.718Z,2.00
2022-12-11T13:06:04.104Z,2.03
2022-12-11T13:08:36.562Z,1.98
2022-12-11T13:11:07.337Z,1.88
2022-12-11T13:13:38.498Z,1.95
2022-12-11T13:16:15.166Z,1.92
2022-12-11T13:18:47.620Z,1.98
2022-12-11T13:21:33.299Z,1.96
2022-12-11T13:24:21.292Z,1.95
2022-12-11T13:26:49.506Z,1.93
2022-12-11T13:29:34.952Z,2.01
2022-12-11T13:32:10.275Z,1.98
2022-12-11T13:34:39.980Z,1.97
2022-12-11T13:37:21.479Z,1.94
2022-12-11T13:39:47.896Z,1.93
2022-12-11T13:42:27.925Z,1.92
2022-12-11T13:44:54.535Z,1.94
2022-12-11T13:47:21.290Z,2.03
2022-12-11T13:49:51.852Z,2.17
2022-12-11T13:52:21.783Z,2.13
2022-12-11T13:54:51.214Z,2.14
2022-12-11T13:57:22.139Z,2.16
2022-12-11T13:59:54.207Z,2.16
2022-12-11T14:02:30.014Z,2.09
2022-12-11T14:05:00.864Z,2.06
2022-12-11T14:07:31.777Z,2.01
2022-12-11T14:10:06.580Z,2.09
2022-12-11T14:12:33.006Z,1.97
2022-12-11T14:15:02.767Z,2.00
2022-12-11T14:17:32.127Z,1.96
2022-12-11T14:20:01.529Z,2.02
2022-12-11T14:22:29.711Z,2.07
2022-12-11T14:24:58.816Z,2.11
2022-12-11T14:27:26.438Z,2.20
2022-12-11T14:29:52.961Z,2.22
2022-12-11T14:32:29.993Z,2.24
2022-12-11T14:34:57.046Z,2.17
2022-12-11T14:37:25.461Z,2.15
2022-12-11T14:40:01.093Z,2.16
2022-12-11T14:42:33.799Z,2.20
2022-12-11T14:45:13.016Z,2.11
2022-12-11T14:47:43.246Z,1.95
2022-12-11T14:50:16.806Z,1.95
2022-12-11T14:52:48.304Z,2.01
2022-12-11T14:55:30.686Z,2.01
2022-12-11T14:58:00.515Z,2.00
2022-12-11T15:00:30.299Z,1.97
2022-12-11T15:02:59.540Z,1.95
2022-12-11T15:05:26.003Z,1.92
2022-12-11T15:08:12.612Z,1.92
2022-12-11T15:11:02.010Z,2.01
2022-12-11T15:13:28.684Z,1.92
2022-12-11T15:15:56.258Z,2.00
2022-12-11T15:18:27.111Z,1.93
2022-12-11T15:20:57.521Z,1.95
2022-12-11T15:23:23.956Z,1.80
2022-12-11T15:26:01.956Z,1.69
2022-12-11T15:28:37.154Z,1.64
2022-12-11T15:31:23.186Z,1.66
2022-12-11T15:33:49.566Z,1.69
2022-12-11T15:36:25.454Z,1.74
2022-12-11T15:38:51.812Z,1.75
2022-12-11T15:41:26.120Z,1.74
2022-12-11T15:43:58.839Z,1.81
2022-12-11T15:46:26.072Z,1.67
2022-12-11T15:48:52.518Z,1.72
2022-12-11T15:51:19.074Z,1.75
2022-12-11T15:53:45.524Z,1.80
2022-12-11T15:56:16.148Z,1.84
2022-12-11T15:58:47.019Z,1.95
2022-12-11T16:01:13.358Z,1.90
2022-12-11T16:03:39.778Z,1.88
2022-12-11T16:06:06.370Z,1.80
2022-12-11T16:08:32.822Z,1.79
2022-12-11T16:10:59.286Z,1.84
2022-12-11T16:13:25.628Z,1.80
2022-12-11T16:15:53.589Z,1.80
2022-12-11T16:18:22.952Z,1.87
2022-12-11T16:20:50.690Z,1.93
2022-12-11T16:23:18.306Z,1.95
2022-12-11T16:25:45.780Z,1.95
2022-12-11T16:28:14.677Z,2.02
2022-12-11T16:30:43.489Z,1.99
2022-12-11T16:33:13.280Z,2.01
2022-12-11T16:35:41.368Z,2.02
2022-12-11T16:38:08.131Z,2.07
2022-12-11T16:40:34.546Z,2.05
2022-12-11T16:43:00.962Z,2.03
2022-12-11T16:45:27.399Z,2.00
2022-12-11T16:47:54.704Z,2.00
2022-12-11T16:50:21.224Z,1.94
2022-12-11T16:52:47.903Z,1.90
2022-12-11T16:55:15.518Z,1.94
2022-12-11T16:57:42.169Z,1.93
2022-12-11T17:00:12.035Z,1.89
2022-12-11T17:02:38.560Z,1.82
2022-12-11T17:05:05.294Z,1.81
2022-12-11T17:07:32.733Z,1.86
2022-12-11T17:10:00.589Z,1.84
2022-12-11T17:12:27.882Z,1.78
2022-12-11T17:14:55.565Z,1.83
2022-12-11T17:17:22.013Z,1.77
2022-12-11T17:19:49.243Z,1.73
2022-12-11T17:22:15.614Z,1.67
2022-12-11T17:24:41.990Z,1.70
2022-12-11T17:27:08.395Z,1.71
2022-12-11T17:29:34.847Z,1.71
2022-12-11T17:32:03.062Z,1.65
2022-12-11T17:34:34.576Z,1.72
2022-12-11T17:37:04.394Z,1.71
2022-12-11T17:39:30.865Z,1.80
2022-12-11T17:41:57.229Z,1.83
2022-12-11T17:44:24.211Z,1.88
2022-12-11T17:46:50.669Z,1.81
2022-12-11T17:49:17.051Z,1.73
2022-12-11T17:51:43.396Z,1.85
2022-12-11T17:54:09.794Z,1.78
2022-12-11T17:56:36.785Z,1.72
2022-12-11T17:59:03.587Z,1.78
2022-12-11T18:01:30.337Z,1.82
2022-12-11T18:04:00.065Z,1.86
2022-12-11T18:06:26.643Z,1.71
2022-12-11T18:08:53.069Z,1.68
2022-12-11T18:11:23.405Z,1.73
2022-12-11T18:13:51.892Z,1.74
2022-12-11T18:16:22.207Z,1.68
2022-12-11T18:18:50.186Z,1.71
2022-12-11T18:21:20.532Z,1.76
2022-12-11T18:23:47.387Z,1.70
2022-12-11T18:26:14.508Z,1.68
2022-12-11T18:28:42.040Z,1.71
2022-12-11T18:31:09.628Z,1.71
2022-12-11T18:33:38.345Z,1.78
2022-12-11T18:36:05.761Z,1.73
2022-12-11T18:38:32.262Z,1.63
2022-12-11T18:40:58.686Z,1.51
2022-12-11T18:43:25.222Z,1.46
2022-12-11T18:45:51.878Z,1.55
2022-12-11T18:48:18.292Z,1.60
2022-12-11T18:50:49.024Z,1.74
2022-12-11T18:53:16.049Z,1.70
2022-12-11T18:55:44.179Z,1.72
2022-12-11T18:58:11.899Z,1.57
2022-12-11T19:00:40.273Z,1.60
2022-12-11T19:03:07.730Z,1.58
2022-12-11T19:05:35.393Z,1.61
2022-12-11T19:08:03.332Z,1.60
2022-12-11T19:10:29.746Z,1.65
2022-12-11T19:12:56.081Z,1.69
2022-12-11T19:15:24.122Z,1.66
2022-12-11T19:17:50.780Z,1.67
2022-12-11T19:20:48.495Z,1.67
2022-12-11T19:23:04.326Z,1.65
2022-12-11T19:25:30.696Z,1.61
2022-12-11T19:27:57.043Z,1.63
2022-12-11T19:30:24.258Z,1.71
2022-12-11T19:32:51.062Z,1.77
2022-12-11T19:35:18.213Z,1.82
2022-12-11T19:37:44.877Z,1.78
2022-12-11T19:40:11.463Z,1.76
2022-12-11T19:42:37.847Z,1.81
2022-12-11T19:45:04.606Z,1.85
2022-12-11T19:47:30.981Z,1.83
2022-12-11T19:49:57.368Z,1.86
2022-12-11T19:52:23.832Z,1.87
2022-12-11T19:54:50.470Z,1.89
2022-12-11T19:57:16.847Z,1.91
2022-12-11T19:59:43.153Z,1.90
2022-12-11T20:02:11.693Z,1.95
2022-12-11T20:04:38.134Z,1.91
2022-12-11T20:07:04.539Z,1.96
2022-12-11T20:09:30.966Z,1.95
2022-12-11T20:11:57.331Z,1.97
2022-12-11T20:14:25.800Z,1.97
2022-12-11T20:17:10.547Z,1.95
2022-12-11T20:19:39.524Z,2.00
2022-12-11T20:22:05.970Z,2.00
2022-12-11T20:24:32.384Z,2.01
2022-12-11T20:26:58.740Z,2.00
2022-12-11T20:29:25.341Z,1.96
2022-12-11T20:31:51.936Z,2.00
2022-12-11T20:34:18.874Z,2.02
2022-12-11T20:36:47.468Z,1.97
2022-12-11T20:39:15.123Z,1.91
2022-12-11T20:41:41.684Z,1.94
2022-12-11T20:44:08.027Z,1.96
2022-12-11T20:46:35.379Z,2.01
2022-12-11T20:49:01.784Z,1.99
2022-12-11T20:51:28.951Z,1.97
2022-12-11T20:53:59.679Z,1.97
2022-12-11T20:56:29.443Z,2.04
2022-12-11T20:58:56.634Z,2.00
2022-12-11T21:01:25.609Z,2.02
2022-12-11T21:03:53.379Z,1.98
2022-12-11T21:06:25.757Z,2.05
2022-12-11T21:08:53.098Z,2.01
2022-12-11T21:11:20.380Z,2.02
2022-12-11T21:13:46.767Z,1.98
2022-12-11T21:16:13.335Z,1.98
2022-12-11T21:18:41.404Z,1.98
2022-12-11T21:21:07.852Z,2.01
2022-12-11T21:23:34.484Z,2.03
2022-12-11T21:26:00.899Z,2.02
2022-12-11T21:28:33.538Z,2.02
2022-12-11T21:31:04.232Z,1.93
2022-12-11T21:33:30.684Z,1.89
2022-12-11T21:35:57.910Z,1.95
2022-12-11T21:38:25.028Z,1.96
2022-12-11T21:40:52.657Z,1.98
2022-12-11T21:43:19.250Z,1.90
2022-12-11T21:46:00.999Z,1.87
2022-12-11T21:48:28.667Z,1.89
2022-12-11T21:50:55.018Z,1.84
2022-12-11T21:53:21.428Z,1.82
2022-12-11T21:55:47.769Z,1.86
2022-12-11T21:58:14.190Z,1.91
2022-12-11T22:00:40.747Z,1.93
2022-12-11T22:03:07.250Z,1.94
2022-12-11T22:05:33.589Z,1.92
2022-12-11T22:08:00.855Z,1.93
2022-12-11T22:10:28.667Z,1.99
2022-12-11T22:12:55.088Z,1.99
2022-12-11T22:15:21.536Z,1.90
2022-12-11T22:17:47.954Z,1.89
2022-12-11T22:20:14.545Z,1.72
2022-12-11T22:22:40.998Z,1.66
2022-12-11T22:25:07.846Z,1.71
2022-12-11T22:27:34.520Z,1.66
2022-12-11T22:30:00.913Z,1.72
2022-12-11T22:32:27.739Z,1.69
2022-12-11T22:34:56.238Z,1.68
2022-12-11T22:37:22.704Z,1.66
2022-12-11T22:39:49.107Z,1.63
2022-12-11T22:42:15.654Z,1.54
2022-12-11T22:44:42.180Z,1.60
2022-12-11T22:47:08.519Z,1.55
2022-12-11T22:49:35.995Z,1.58
2022-12-11T22:52:02.580Z,1.53
2022-12-11T22:54:29.125Z,1.62
2022-12-11T22:56:55.676Z,1.56
2022-12-11T22:59:23.141Z,1.50
2022-12-11T23:01:49.741Z,1.44
2022-12-11T23:04:16.114Z,1.46
2022-12-11T23:06:42.449Z,1.47
2022-12-11T23:09:09.076Z,1.50
2022-12-11T23:11:37.466Z,1.55
2022-12-11T23:14:07.498Z,1.60
2022-12-11T23:16:33.970Z,1.56
2022-12-11T23:19:00.934Z,1.58
2022-12-11T23:21:28.746Z,1.56
2022-12-11T23:23:56.322Z,1.62
2022-12-11T23:26:23.177Z,1.66
2022-12-11T23:28:49.619Z,1.64
2022-12-11T23:31:16.560Z,1.70
2022-12-11T23:33:42.934Z,1.73
2022-12-11T23:36:09.570Z,1.67
2022-12-11T23:38:36.336Z,1.73
2022-12-11T23:41:04.074Z,1.78
2022-12-11T23:43:30.945Z,1.79
2022-12-11T23:45:57.777Z,1.79
2022-12-11T23:48:24.392Z,1.80
2022-12-11T23:50:50.722Z,1.80
2022-12-11T23:53:17.138Z,1.84
2022-12-11T23:55:45.339Z,1.92
2022-12-11T23:58:12.666Z,1.95
